Sedgwick Reserve, California Weather observations

Data are for 10 minute period ending at time listed.
 Day   Time   Solar   Ave.   Ave.  Ave.  Vector  Max.   Baro.   Total    
  of    of     Rad.   Air    Rel.  Wind   Wind   Wind  Press.  Precip.   
Year   Day            Temp.  Hum.  Speed  Dir.   Gust                    
2015   (PST)  Kw/m2    F      %     mph   deg.    mph    mb.     in.     
-------------------------------------------------------------------------
  24   22:20   0.00   46.4    56    2.6     4     5.6   976.7    0.00 
  24   22:30   0.00   46.3    55    2.4   284     5.7   977.0    0.00 
  24   22:40   0.00   47.0    54    3.3   352     5.2   977.1    0.00 
  24   22:50   0.00   46.5    56    0.7   323     2.9   977.3    0.00 
  24   23:00   0.00   45.2    60    7.2   355    12.3   977.2    0.00 
  24   23:10   0.00   45.2    59    6.3   346    11.0   977.2    0.00 
  24   23:20   0.00   47.5    54    2.2   311     6.3   977.2    0.00 
  24   23:30   0.00   47.9    53    2.5   255     4.4   977.2    0.00 
  24   23:40   0.00   49.9    47    2.5   350     5.3   977.1    0.00 
  24   23:50   0.00   49.7    48    2.0   358     3.9   977.1    0.00 
  25    0:00   0.00   47.2    52    2.1   351     4.0   976.9    0.00 
  25    0:10   0.00   46.9    52    2.2   347     4.5   976.9    0.00 
  25    0:20   0.00   46.5    53    1.3     7     3.7   976.7    0.00 
  25    0:30   0.00   45.8    54    2.3   355     4.7   976.5    0.00 
  25    0:40   0.00   45.8    53    3.4   329     7.6   976.4    0.00 
  25    0:50   0.00   46.4    50    1.3   252     3.0   976.3    0.00 
  25    1:00   0.00   45.5    52    1.0   270     2.6   976.3    0.00 
  25    1:10   0.00   45.2    52    1.8   318     3.4   976.2    0.00 
  25    1:20   0.00   45.8    49    2.3   348     4.7   976.2    0.00 
  25    1:30   0.00   45.4    48    3.1   335     6.3   976.1    0.00 
  25    1:40   0.00   46.3    46    3.5   322     6.3   976.1    0.00 
  25    1:50   0.00   46.7    45    2.0   319     3.9   976.1    0.00 
  25    2:00   0.00   47.0    44    3.3   334     6.3   976.1    0.00 
  25    2:10   0.00   46.3    46    2.6   274     6.9   976.1    0.00 
  25    2:20   0.00   45.9    44    4.9   338     7.5   976.2    0.00 
  25    2:30   0.00   46.8    41    3.3   330     6.5   976.2    0.00 
  25    2:40   0.00   47.4    40    2.7   336     5.6   976.1    0.00 
  25    2:50   0.00   47.0    40    2.4   356     6.1   976.0    0.00 
  25    3:00   0.00   46.0    41    4.5   351     7.7   976.0    0.00 
  25    3:10   0.00   47.1    36    2.6   326     6.6   975.9    0.00 
  25    3:20   0.00   48.9    34    0.4   245     2.2   975.9    0.00 
  25    3:30   0.00   48.5    34    0.9   161     2.1   975.8    0.00 
  25    3:40   0.00   49.4    34    0.7   184     2.3   975.7    0.00 
  25    3:50   0.00   48.0    36    4.9   355     8.7   975.6    0.00 
  25    4:00   0.00   48.6    35    5.6   309    12.3   975.5    0.00 
  25    4:10   0.00   50.7    31    3.8   312    11.0   975.4    0.00 
  25    4:20   0.00   50.0    34    4.6   356     9.0   975.3    0.00 
  25    4:30   0.00   48.7    36    2.7   271     4.7   975.2    0.00 
  25    4:40   0.00   49.3    34    3.9   347     9.5   975.1    0.00 
  25    4:50   0.00   49.5    35    3.8   337     7.4   975.0    0.00 
  25    5:00   0.00   50.5    32    1.5   346     3.8   975.0    0.00 
  25    5:10   0.00   49.7    34    1.0   311     3.6   975.0    0.00 
  25    5:20   0.00   49.8    33    3.7     1     8.0   974.8    0.00 
  25    5:30   0.00   49.1    35    4.7   335     9.3   974.9    0.00 
  25    5:40   0.00   50.3    33    3.0   333     6.3   974.8    0.00 
  25    5:50   0.00   49.5    34    1.7   331     4.4   974.9    0.00 
  25    6:00   0.00   49.1    35    2.2   302     4.6   974.9    0.00 
  25    6:10   0.00   50.3    33    3.6   346     5.9   974.9    0.00 
  25    6:20   0.00   49.4    36    4.4   323     7.3   975.0    0.00 
  25    6:30   0.00   50.4    34    3.3   341     9.1   975.0    0.00 
  25    6:40   0.00   51.0    33    3.6   348     8.6   975.0    0.00 
  25    6:50   0.00   49.9    35    2.8   311     6.9   975.1    0.00 
  25    7:00   0.00   51.0    32    2.7   295     6.0   975.2    0.00 
  25    7:10   0.00   51.4    33    5.1     4    10.7   975.2    0.00 
  25    7:20   0.01   53.3    30    5.8   353    10.2   975.3    0.00 
  25    7:30   0.03   54.4    29    3.2   347     8.2   975.3    0.00 
  25    7:40   0.06   53.7    33    2.2   331     4.1   975.2    0.00 
  25    7:50   0.08   52.9    35    1.9   258     3.5   975.2    0.00 
  25    8:00   0.11   54.4    34    2.5     0     5.3   975.0    0.00 
  25    8:10   0.14   56.3    33    1.1   293     3.4   974.9    0.00 
  25    8:20   0.17   57.5    36    1.9   128     3.3   975.0    0.00 
  25    8:30   0.20   56.6    39    1.8   143     4.9   975.1    0.00 
  25    8:40   0.23   58.6    36    2.5   115     4.6   975.1    0.00 
  25    8:50   0.26   59.4    36    2.1   136     3.5   975.2    0.00 
  25    9:00   0.29   59.6    36    2.8   129     5.1   975.4    0.00 
  25    9:10   0.32   61.3    31    1.8   112     3.1   975.6    0.00 
  25    9:20   0.34   63.5    29    0.5     6     2.8   975.6    0.00 
  25    9:30   0.37   65.8    28    0.3     9     2.1   975.6    0.00 
  25    9:40   0.40   69.0    26    0.8   107     2.3   975.7    0.00 
  25    9:50   0.42   69.7    27    1.3   111     2.9   976.0    0.00 
  25   10:00   0.44   70.1    29    1.7    62     2.8   976.0    0.00 
  25   10:10   0.46   70.9    29    1.8   124     3.4   976.0    0.00 
  25   10:20   0.49   72.3    27    1.6   133     2.6   976.0    0.00 
  25   10:30   0.50   72.6    26    3.4   120     5.8   976.0    0.00 
  25   10:40   0.52   73.2    26    2.6   125     4.5   975.9    0.00 
  25   10:50   0.54   73.5    26    2.5   113     4.1   975.8    0.00 
  25   11:00   0.55   74.6    27    3.6   135     7.4   975.8    0.00 
  25   11:10   0.56   74.3    27    4.7   133     7.5   975.7    0.00 
  25   11:20   0.58   74.7    24    3.6   131     7.3   975.6    0.00 
  25   11:30   0.55   75.2    26    3.6   123     7.2   975.4    0.00 
  25   11:40   0.59   75.5    28    4.2   110     6.6   975.2    0.00 
  25   11:50   0.59   75.9    27    3.7   130     7.1   975.1    0.00 
  25   12:00   0.60   76.6    24    5.3   136     9.0   975.0    0.00 
  25   12:10   0.60   76.8    21    5.1   174    10.4   974.8    0.00 
  25   12:20   0.60   76.4    19    6.6   195     9.9   974.7    0.00 
  25   12:30   0.60   76.0    16    6.2   202    10.4   974.6    0.00 
  25   12:40   0.60   75.9    16    4.5   201     8.7   974.4    0.00 
  25   12:50   0.60   76.3    16    4.7   216    11.3   974.3    0.00 
  25   13:00   0.59   76.1    16    5.7   235     8.3   974.2    0.00 
  25   13:10   0.59   76.6    18    3.9   234     8.5   973.9    0.00 
  25   13:20   0.58   77.1    17    5.6   223     8.8   973.7    0.00 
  25   13:30   0.56   77.2    17    7.0   214    11.0   973.5    0.00 
  25   13:40   0.55   77.6    19    6.1   239    10.2   973.4    0.00 
  25   13:50   0.53   77.9    19    4.4   209     8.6   973.3    0.00 
  25   14:00   0.52   78.6    19    5.6   184    12.0   973.3    0.00 
  25   14:10   0.50   77.5    19    6.4   204     9.8   973.3    0.00 
  25   14:20   0.48   77.8    19    7.4   198    10.7   973.3    0.00 
  25   14:30   0.46   77.4    20    6.8   218    11.0   973.2    0.00 
  25   14:40   0.44   77.7    19    5.2   232     9.3   973.2    0.00 
  25   14:50   0.42   78.0    19    6.3   231    10.2   973.1    0.00 
  25   15:00   0.34   78.0    20    4.4   216     9.7   973.1    0.00 
  25   15:10   0.27   77.4    18    5.8   220     8.6   973.1    0.00 
  25   15:20   0.34   77.6    19    5.6   210     8.8   973.0    0.00 
  25   15:30   0.32   77.0    18    6.7   230    11.1   973.0    0.00 
  25   15:40   0.28   77.1    18    6.5   246    11.2   973.0    0.00 
  25   15:50   0.15   76.0    17    7.0   238    11.0   973.0    0.00 
  25   16:00   0.13   75.4    19    4.9   254     8.1   973.1    0.00 
  25   16:10   0.10   74.2    20    5.9   266     8.6   973.4    0.00 
  25   16:20   0.09   73.3    20    5.7   272     8.3   973.6    0.00 
  25   16:30   0.08   72.6    22    3.7   283     5.8   973.6    0.00 
  25   16:40   0.06   71.8    22    3.9   290     5.4   973.7    0.00 
  25   16:50   0.04   71.2    21    3.9   296     5.9   973.7    0.00 
  25   17:00   0.03   69.9    24    3.2   305     6.3   973.8    0.00 
  25   17:10   0.01   68.3    26    2.1   336     5.4   973.9    0.00 
  25   17:20   0.00   66.5    27    1.2   284     2.4   973.9    0.00 
  25   17:30   0.00   66.9    25    1.7   308     2.6   973.9    0.00 
  25   17:40   0.00   64.5    30    3.5   356     5.6   973.9    0.00 
  25   17:50   0.00   61.9    35    4.7   351     6.6   973.8    0.00 
  25   18:00   0.00   61.1    33    3.8   333     7.7   973.8    0.00 
  25   18:10   0.00   61.8    31    2.2   339     4.5   973.7    0.00 
  25   18:20   0.00   61.2    32    3.1   342     5.4   973.8    0.00 
  25   18:30   0.00   60.9    31    0.9   296     2.9   973.9    0.00 
  25   18:40   0.00   60.6    31    1.0   313     2.5   973.9    0.00 
  25   18:50   0.00   58.2    37    4.6   359     7.5   973.8    0.00 
  25   19:00   0.00   58.0    37    1.4    15     4.8   974.1    0.00 
  25   19:10   0.00   57.8    36    1.5   245     3.4   974.2    0.00 
  25   19:20   0.00   57.8    37    2.3   337     3.6   974.3    0.00 
  25   19:30   0.00   56.4    40    3.0   359     5.4   974.5    0.00 
  25   19:40   0.00   56.0    40    3.0   357     6.5   974.6    0.00 
  25   19:50   0.00   54.6    44    5.5   357     9.9   974.7    0.00 
  25   20:00   0.00   54.5    43    5.5   346     7.3   974.6    0.00 
  25   20:10   0.00   55.6    40    3.8   339     7.5   974.7    0.00 
  25   20:20   0.00   56.9    39    0.8   354     2.6   974.8    0.00 
  25   20:30   0.00   55.7    40    0.4     9     2.0   974.8    0.00 
  25   20:40   0.00   54.9    42    0.1   110     0.9   974.9    0.00 
  25   20:50   0.00   54.9    42    0.1   326     2.3   975.0    0.00 
  25   21:00   0.00   55.2    41    0.9   304     2.6   974.9    0.00 
  25   21:10   0.00   54.3    43    0.6    15     2.9   975.1    0.00 
  25   21:20   0.00   53.9    43    0.7   316     1.8   975.3    0.00 
  25   21:30   0.00   53.4    45    1.4   353     2.6   975.4    0.00 
  25   21:40   0.00   52.5    46    1.0   262     3.2   975.4    0.00 
  25   21:50   0.00   52.2    47    0.7     4     3.5   975.4    0.00 
  25   22:00   0.00   51.2    49    3.6   355     5.1   975.5    0.00 
  25   22:10   0.00   52.1    47    3.5   345     6.1   975.5    0.00 

Return to Sedgwick Reserve graphs page.


Western Regional Climate Center,wrcc@dri.edu